Time;durP1;ratioP1;P1;durP2;ratioP2;P2;SDS_P1;SDS_P2;PMS_P1;PMS_P2;Temp;Humidity;BMP_temperature;BMP_pressure;BME280_temperature;BME280_humidity;BME280_pressure;Samples;Min_cycle;Max_cycle;Signal;HPM_P1;HPM_P2
2022/11/03 00:00:17;;;;;;;11.88;2.20;;;5.70;99.90;;;3.99;100.00;101587.69;5038986;28;20040;-85
2022/11/03 00:02:43;;;;;;;15.73;1.95;;;5.60;99.90;;;3.96;100.00;101585.13;5050630;28;20025;-85
2022/11/03 00:08:16;;;;;;;6.95;2.10;;;5.50;99.90;;;3.81;100.00;101581.69;5055496;28;20058;-85
2022/11/03 00:10:42;;;;;;;37.58;22.30;;;5.50;99.90;;;3.80;100.00;101590.41;5028878;28;20033;-86
2022/11/03 00:13:19;;;;;;;19.13;9.35;;;5.50;99.90;;;3.79;100.00;101587.81;5035976;28;20060;-85
2022/11/03 00:15:59;;;;;;;12.77;3.80;;;;;;;3.73;100.00;101580.88;5034151;28;21243;-84
2022/11/03 00:18:24;;;;;;;9.40;3.33;;;5.40;99.90;;;3.73;100.00;101583.47;5047319;28;20053;-84
2022/11/03 00:21:05;;;;;;;20.23;3.53;;;;;;;3.78;100.00;101589.53;5018595;28;20497;-85
2022/11/03 00:23:34;;;;;;;9.95;2.95;;;;;;;3.82;100.00;101599.09;5044568;28;20885;-85
2022/11/03 00:26:24;;;;;;;21.55;3.65;;;5.40;99.90;;;3.81;100.00;101594.72;5036461;28;20037;-85
2022/11/03 00:29:03;;;;;;;12.50;3.03;;;5.40;99.90;;;3.78;100.00;101586.94;5035625;28;20029;-85
2022/11/03 00:31:41;;;;;;;20.20;3.38;;;;;;;3.84;100.00;101597.31;5011719;28;20030;-86
2022/11/03 00:34:10;;;;;;;15.85;3.45;;;;;;;3.82;100.00;101599.09;5034529;28;20056;-85
2022/11/03 00:36:45;;;;;;;8.60;2.95;;;5.40;99.90;;;3.79;100.00;101593.00;5037260;28;20025;-85
2022/11/03 00:39:12;;;;;;;17.95;3.35;;;;;;;3.75;100.00;101601.72;5029325;28;20485;-86
2022/11/03 00:41:40;;;;;;;18.95;3.80;;;5.30;99.90;;;3.72;100.00;101594.78;5049589;28;20029;-85
2022/11/03 00:44:12;;;;;;;15.15;3.50;;;5.30;99.90;;;3.69;100.00;101597.38;5034780;28;20033;-84
2022/11/03 00:46:54;;;;;;;16.45;3.72;;;5.30;99.90;;;3.61;100.00;101592.22;5012931;28;20183;-85
2022/11/03 00:49:23;;;;;;;20.50;3.92;;;5.20;99.90;;;3.57;100.00;101594.84;5035801;28;20115;-85
2022/11/03 00:51:49;;;;;;;22.38;4.10;;;5.20;99.90;;;3.56;100.00;101590.50;5045998;28;20432;-85
2022/11/03 00:54:22;;;;;;;17.90;3.78;;;;;;;3.52;100.00;101583.56;5023162;28;20061;-85
2022/11/03 00:56:48;;;;;;;11.50;3.20;;;5.20;99.90;;;3.49;100.00;101595.72;5039334;28;20033;-85
2022/11/03 00:59:14;;;;;;;15.15;3.45;;;5.10;99.90;;;3.42;100.00;101593.16;5022282;28;20022;-86
2022/11/03 01:01:51;;;;;;;19.05;3.58;;;;;;;3.53;100.00;101593.97;5021388;28;20056;-86
2022/11/03 01:10:13;;;;;;;15.35;4.32;;;;;;;3.59;100.00;101582.69;5085023;23;20045;-85
2022/11/03 01:12:47;;;;;;;14.90;4.55;;;;;;;3.50;100.00;101578.38;5053159;28;20059;-86
2022/11/03 01:15:13;;;;;;;16.83;4.20;;;5.10;99.90;;;3.42;100.00;101594.00;5059170;28;20039;-85
2022/11/03 01:17:56;;;;;;;21.17;4.35;;;;;;;3.37;100.00;101580.16;5044169;28;20020;-85
2022/11/03 01:20:32;;;;;;;20.20;4.35;;;;;;;3.36;100.00;101585.38;5070445;28;20036;-85
2022/11/03 01:23:00;;;;;;;12.43;4.75;;;;;;;3.29;100.00;101579.31;5073555;28;20028;-86
2022/11/03 01:25:34;;;;;;;16.38;4.60;;;4.90;99.90;;;3.17;100.00;101572.38;5068386;28;20025;-85
2022/11/03 01:28:03;;;;;;;19.10;4.60;;;4.80;99.90;;;3.05;100.00;101568.09;5074962;22;20033;-86
2022/11/03 01:30:41;;;;;;;21.80;5.10;;;;;;;2.98;100.00;101575.88;5040451;28;20021;-86
2022/11/03 01:33:07;;;;;;;22.05;5.78;;;4.60;99.90;;;2.94;100.00;101575.06;5055694;28;20054;-85
2022/11/03 01:35:44;;;;;;;15.48;5.00;;;;;;;2.91;100.00;101566.38;5039748;28;20484;-85
2022/11/03 01:38:23;;;;;;;16.08;4.70;;;;;;;2.84;100.00;101573.31;5061546;28;20083;-85
2022/11/03 01:40:49;;;;;;;13.73;4.60;;;;;;;2.83;100.00;101562.06;5070044;28;20043;-86
2022/11/03 01:43:23;;;;;;;16.60;5.43;;;;;;;2.84;100.00;101563.78;5060683;28;20033;-85
2022/11/03 01:46:11;;;;;;;10.05;5.30;;;;;;;2.93;100.00;101567.25;5063347;28;20036;-87
2022/11/03 01:48:53;;;;;;;17.98;5.55;;;;;;;2.99;100.00;101551.63;5068974;28;20032;-85
2022/11/03 01:51:29;;;;;;;17.00;5.95;;;;;;;3.01;100.00;101549.88;5068454;28;20032;-86
2022/11/03 01:54:04;;;;;;;19.08;5.97;;;4.60;99.90;;;3.04;100.00;101552.47;5066991;28;20504;-86
2022/11/03 01:56:37;;;;;;;17.88;5.70;;;5.40;99.90;;;3.06;100.00;101543.78;5059940;28;20064;-85
2022/11/03 01:59:11;;;;;;;14.75;5.28;;;;;;;3.06;100.00;101537.72;5069813;28;20028;-85
2022/11/03 02:01:37;;;;;;;29.52;5.57;;;;;;;3.04;100.00;101536.84;5059304;28;20029;-85
2022/11/03 02:04:36;;;;;;;15.85;5.68;;;;;;;3.03;100.00;101536.00;5065771;28;20086;-85
2022/11/03 02:07:32;;;;;;;16.63;5.40;;;4.60;99.90;;;3.02;100.00;101536.88;5067868;28;20041;-86
2022/11/03 02:10:22;;;;;;;20.25;6.03;;;;;;;3.03;100.00;101533.41;5066724;28;20032;-86
2022/11/03 02:12:51;;;;;;;29.75;6.47;;;4.60;99.90;;;3.00;100.00;101517.81;5063082;28;20024;-85
2022/11/03 02:15:24;;;;;;;24.48;5.60;;;;;;;3.05;100.00;101530.81;5067076;28;20407;-85
2022/11/03 02:17:53;;;;;;;19.15;5.40;;;;;;;3.03;100.00;101523.00;5073316;28;20031;-86
2022/11/03 02:20:30;;;;;;;14.07;5.82;;;4.60;99.90;;;3.03;100.00;101523.00;5062397;28;20028;-86
2022/11/03 02:23:30;;;;;;;19.25;5.97;;;4.60;99.90;;;2.97;100.00;101525.59;5064046;28;20038;-86
2022/11/03 02:26:07;;;;;;;19.40;4.78;;;4.50;99.90;;;2.90;100.00;101516.09;5070081;28;20036;-85
2022/11/03 02:28:33;;;;;;;14.75;5.07;;;;;;;2.90;100.00;101505.69;5053909;28;20032;-85
2022/11/03 02:31:13;;;;;;;16.95;5.65;;;4.50;99.90;;;2.91;100.00;101504.81;5066819;28;20114;-86
2022/11/03 02:34:39;;;;;;;18.75;5.25;;;4.50;99.90;;;2.87;100.00;101506.56;5075514;28;20025;-86
2022/11/03 02:37:34;;;;;;;26.25;6.53;;;4.40;99.90;;;2.80;100.00;101488.34;5039349;28;20032;-85
2022/11/03 02:40:36;;;;;;;15.70;6.15;;;4.40;99.90;;;2.70;100.00;101491.84;5066949;28;20029;-85
2022/11/03 02:43:13;;;;;;;28.15;6.55;;;4.30;99.90;;;2.66;100.00;101486.66;5057608;28;20035;-85
2022/11/03 02:45:40;;;;;;;16.20;6.05;;;4.30;99.90;;;2.66;100.00;101485.81;5044274;28;20427;-85
2022/11/03 02:48:37;;;;;;;18.85;5.90;;;;;;;2.67;100.00;101477.97;5066266;28;20035;-85
2022/11/03 02:51:13;;;;;;;24.02;6.10;;;;;;;2.66;100.00;101493.59;5083214;28;20040;-85
2022/11/03 02:53:56;;;;;;;22.52;6.32;;;;;;;2.72;100.00;101484.91;5059894;28;20040;-86
2022/11/03 02:56:45;;;;;;;22.67;6.50;;;4.30;99.90;;;2.78;100.00;101475.34;5060893;28;20031;-85
2022/11/03 02:59:25;;;;;;;22.17;5.50;;;;;;;2.80;100.00;101488.34;5082915;28;20395;-86
2022/11/03 03:02:08;;;;;;;27.73;6.43;;;4.40;99.90;;;2.88;100.00;101478.81;5066330;28;20032;-86
2022/11/03 03:05:06;;;;;;;43.90;39.35;;;4.50;99.90;;;2.94;100.00;101485.72;5047997;28;20037;-85
2022/11/03 03:07:44;;;;;;;25.50;13.90;;;4.60;99.90;;;2.98;100.00;101477.91;5056933;28;20124;-85
2022/11/03 03:10:45;;;;;;;21.20;6.65;;;4.60;99.90;;;3.04;100.00;101477.88;5059872;28;20028;-86
2022/11/03 03:13:23;;;;;;;17.08;7.22;;;4.60;99.90;;;3.06;100.00;101473.53;5036147;28;20027;-86
2022/11/03 03:16:32;;;;;;;18.75;5.00;;;4.70;99.90;;;3.11;100.00;101476.13;5049587;28;20036;-86
2022/11/03 03:20:29;;;;;;;16.85;5.05;;;4.70;99.90;;;3.03;100.00;101465.75;5064684;28;20028;-85
2022/11/03 03:23:23;;;;;;;15.55;5.53;;;4.70;99.90;;;3.05;100.00;101458.81;4982652;28;20046;-85
2022/11/03 03:26:22;;;;;;;16.35;5.35;;;4.70;99.90;;;3.08;100.00;101458.78;5051165;28;20024;-85
2022/11/03 03:29:34;;;;;;;18.65;4.70;;;4.70;99.90;;;3.12;100.00;101440.56;5064388;28;20404;-85
2022/11/03 03:32:12;;;;;;;20.92;5.18;;;4.70;99.90;;;3.13;100.00;101439.69;5059246;28;20051;-85
2022/11/03 03:34:42;;;;;;;17.00;4.55;;;4.70;99.90;;;3.21;100.00;101443.97;5080715;28;20018;-85
2022/11/03 03:37:16;;;;;;;21.65;5.03;;;;;;;3.26;100.00;101444.84;5076369;28;20028;-86
2022/11/03 03:39:47;;;;;;;15.50;4.78;;;4.80;99.90;;;3.30;100.00;101435.25;5074655;28;20036;-86
2022/11/03 03:42:23;;;;;;;25.38;6.10;;;4.90;99.90;;;3.27;100.00;101435.28;5064070;28;20418;-86
2022/11/03 03:44:51;;;;;;;22.38;5.13;;;4.90;99.90;;;3.29;100.00;101437.00;5064470;22;20069;-84
2022/11/03 03:47:40;;;;;;;13.73;5.00;;;4.90;99.90;;;3.32;100.00;101433.50;5028864;28;20025;-83
2022/11/03 03:50:06;;;;;;;23.70;5.35;;;4.90;99.90;;;3.35;100.00;101446.53;5018104;28;20053;-83
2022/11/03 03:52:36;;;;;;;17.42;4.72;;;4.90;99.90;;;3.38;100.00;101449.09;5022156;28;20024;-84
2022/11/03 03:55:15;;;;;;;18.08;5.22;;;5.00;99.90;;;3.46;100.00;101451.69;5033163;28;20025;-84
2022/11/03 03:57:42;;;;;;;21.52;5.47;;;5.00;99.90;;;3.49;100.00;101447.28;5020152;28;20037;-83
2022/11/03 04:00:38;;;;;;;22.02;5.70;;;5.00;99.90;;;3.52;100.00;101443.84;5037843;28;20073;-83
2022/11/03 04:03:33;;;;;;;14.82;5.85;;;5.10;99.90;;;3.53;100.00;101435.13;5014628;28;20053;-84
2022/11/03 04:06:08;;;;;;;15.18;4.63;;;5.10;99.90;;;3.57;100.00;101436.00;5033071;28;20065;-84
2022/11/03 04:08:34;;;;;;;18.95;5.60;;;5.10;99.90;;;3.56;100.00;101429.91;5015935;28;20128;-83
2022/11/03 04:22:21;;;;;;;25.10;4.90;;;5.10;99.90;;;3.53;100.00;101408.25;5036331;28;20035;-85
2022/11/03 04:24:52;;;;;;;20.77;5.20;;;5.10;99.90;;;3.51;100.00;101415.19;5014438;28;20096;-85
2022/11/03 04:27:24;;;;;;;23.15;5.03;;;5.10;99.90;;;3.53;100.00;101408.25;5016582;28;20125;-84
2022/11/03 04:29:51;;;;;;;18.55;4.60;;;5.10;99.90;;;3.52;100.00;101403.88;5049234;28;20052;-85
2022/11/03 04:32:30;;;;;;;17.00;4.95;;;5.10;99.90;;;3.55;100.00;101398.69;5026552;28;20021;-84
2022/11/03 04:35:00;;;;;;;14.80;4.35;;;5.10;99.90;;;3.55;100.00;101404.75;5018545;28;20387;-84
2022/11/03 04:37:38;;;;;;;14.82;4.18;;;5.10;99.90;;;3.56;100.00;101397.78;5037131;28;20089;-84
2022/11/03 04:40:20;;;;;;;15.55;4.25;;;5.10;99.90;;;3.53;100.00;101403.88;5030775;28;20040;-83
2022/11/03 04:42:54;;;;;;;18.58;4.82;;;5.10;99.90;;;3.52;100.00;101401.28;5047181;28;20021;-83
2022/11/03 04:45:32;;;;;;;12.88;4.72;;;5.10;99.90;;;3.51;100.00;101404.78;5024306;28;20104;-83
2022/11/03 04:48:05;;;;;;;8.98;4.28;;;5.10;99.90;;;3.52;100.00;101396.06;5031466;28;20411;-85
2022/11/03 04:50:42;;;;;;;22.80;5.05;;;5.10;99.90;;;3.47;100.00;101402.19;5036780;28;20028;-85
2022/11/03 04:53:21;;;;;;;18.00;5.00;;;5.10;99.90;;;3.52;100.00;101403.88;5040857;28;20025;-85
2022/11/03 04:56:12;;;;;;;16.17;4.95;;;5.00;99.90;;;3.45;100.00;101403.06;5016131;28;20054;-84
2022/11/03 04:58:42;;;;;;;18.65;5.30;;;5.00;99.90;;;3.39;100.00;101393.56;5019041;28;20048;-83
2022/11/03 05:01:20;;;;;;;28.10;5.57;;;5.00;99.90;;;3.38;100.00;101389.22;5040592;28;20045;-84
2022/11/03 05:04:03;;;;;;;13.13;5.03;;;;;;;3.35;100.00;101384.06;5021012;28;20047;-84
2022/11/03 05:06:43;;;;;;;13.32;5.15;;;4.90;99.90;;;3.35;100.00;101384.06;5046898;28;20040;-84
2022/11/03 05:09:25;;;;;;;18.88;5.30;;;4.90;99.90;;;3.40;100.00;101378.81;5029404;28;20041;-85
2022/11/03 05:12:00;;;;;;;19.63;5.22;;;5.00;99.90;;;3.41;100.00;101378.81;5011218;28;20013;-84
2022/11/03 05:14:37;;;;;;;21.02;5.10;;;4.90;99.90;;;3.44;100.00;101370.97;5028403;28;20604;-85
2022/11/03 05:17:21;;;;;;;19.50;4.60;;;5.00;99.90;;;3.47;100.00;101355.31;5023186;28;20485;-84
2022/11/03 05:20:02;;;;;;;13.40;5.20;;;5.10;99.90;;;3.54;100.00;101357.88;5035557;28;20110;-84
2022/11/03 05:22:40;;;;;;;18.00;5.00;;;5.10;99.90;;;3.60;100.00;101357.84;5017097;28;20031;-85
2022/11/03 05:26:04;;;;;;;15.52;5.15;;;5.10;99.90;;;3.65;100.00;101361.25;5031240;28;20033;-84
2022/11/03 05:28:44;;;;;;;19.85;4.97;;;5.20;99.90;;;3.65;100.00;101366.47;5047360;28;20053;-85
2022/11/03 05:31:29;;;;;;;17.73;4.38;;;5.20;99.90;;;3.71;100.00;101374.22;5043584;28;20033;-85
2022/11/03 05:34:24;;;;;;;13.48;4.68;;;5.20;99.90;;;3.71;100.00;101374.22;5020654;28;20032;-83
2022/11/03 05:36:49;;;;;;;15.20;4.50;;;5.20;99.90;;;3.73;100.00;101367.28;5032236;28;20470;-84
2022/11/03 05:39:45;;;;;;;17.75;5.35;;;5.20;99.90;;;3.75;100.00;101372.47;5029363;28;20067;-84
2022/11/03 05:42:38;;;;;;;14.98;4.78;;;5.20;99.90;;;3.76;100.00;101368.97;5010293;28;20042;-84
2022/11/03 05:45:32;;;;;;;16.90;4.90;;;5.20;99.90;;;3.70;100.00;101373.38;5037679;28;20037;-84
2022/11/03 05:48:02;;;;;;;23.40;5.63;;;;;;;3.62;100.00;101372.56;5037209;28;20052;-85
2022/11/03 05:50:41;;;;;;;21.67;4.68;;;5.10;99.90;;;3.56;100.00;101383.03;5031365;28;20570;-84
2022/11/03 05:53:32;;;;;;;13.77;4.90;;;5.10;99.90;;;3.53;100.00;101377.84;5013205;28;20060;-84
2022/11/03 05:56:05;;;;;;;11.02;4.25;;;5.00;99.90;;;3.45;100.00;101374.44;5033744;28;20509;-83
2022/11/03 05:58:43;;;;;;;12.18;4.03;;;4.90;99.90;;;3.35;100.00;101376.25;5007666;28;20780;-85
2022/11/03 06:01:54;;;;;;;10.25;4.05;;;4.10;99.90;;;3.24;100.00;101375.41;5026323;28;20029;-85
2022/11/03 06:04:46;;;;;;;;;;;;;;;;;;;;;
2022/11/03 06:07:31;;;;;;;15.50;5.57;;;4.60;99.90;;;3.06;100.00;101377.25;5032461;28;20037;-84
2022/11/03 06:10:22;;;;;;;20.42;5.85;;;4.50;99.90;;;2.87;100.00;101368.69;5020741;28;20060;-85
2022/11/03 06:12:53;;;;;;;18.45;5.60;;;4.50;99.90;;;2.86;100.00;101364.34;5035048;28;20026;-84
2022/11/03 06:15:33;;;;;;;19.08;7.38;;;;;;;2.85;100.00;101366.94;5047869;28;20026;-85
2022/11/03 06:18:39;;;;;;;18.15;7.78;;;4.40;99.90;;;2.92;100.00;101365.22;5034970;28;20080;-85
2022/11/03 06:21:34;;;;;;;16.95;9.52;;;4.40;99.90;;;2.97;100.00;101369.50;5043510;28;20606;-86
2022/11/03 06:24:14;;;;;;;27.05;9.55;;;4.40;99.90;;;2.94;100.00;101361.72;4984260;28;20054;-84
2022/11/03 06:26:43;;;;;;;24.65;8.60;;;;;;;2.94;100.00;101363.44;5026668;28;20056;-83
2022/11/03 06:29:23;;;;;;;25.10;9.68;;;4.50;99.90;;;2.95;100.00;101365.19;5039375;28;20037;-85
2022/11/03 06:32:01;;;;;;;33.38;11.48;;;4.40;99.90;;;2.86;100.00;101359.16;5013603;28;20063;-84
2022/11/03 06:35:12;;;;;;;22.65;7.50;;;4.40;99.90;;;2.79;100.00;101361.81;5023062;28;20025;-85
2022/11/03 06:40:34;;;;;;;;;;;4.30;99.90;;;2.78;100.00;101357.47;5033923;28;20038;-86
2022/11/03 06:43:30;;;;;;;21.00;6.47;;;4.30;99.90;;;2.77;100.00;101356.59;5031377;28;19916;-86
2022/11/03 06:46:11;;;;;;;14.15;6.78;;;4.30;99.90;;;2.77;100.00;101353.13;5007551;28;20040;-85
2022/11/03 06:48:47;;;;;;;24.02;6.80;;;4.30;99.90;;;2.74;100.00;101348.78;5014142;28;20060;-85
2022/11/03 06:51:42;;;;;;;25.60;7.05;;;;;;;2.92;100.00;101347.00;5031057;28;20028;-87
2022/11/03 06:54:22;;;;;;;32.63;8.43;;;4.40;99.90;;;3.04;100.00;101339.97;5029859;28;20072;-86
2022/11/03 06:56:58;;;;;;;;;;;;;;;;;;;;;
2022/11/03 06:59:47;;;;;;;23.65;6.47;;;;;;;3.45;100.00;101330.16;5021088;28;20014;-87
2022/11/03 07:03:12;;;;;;;25.80;7.25;;;4.80;99.90;;;3.86;100.00;101332.41;5014206;28;20403;-87
2022/11/03 07:05:51;;;;;;;22.48;6.22;;;5.10;99.90;;;4.56;100.00;101336.91;5015758;28;20029;-87
2022/11/03 07:09:04;;;;;;;17.95;6.53;;;5.50;99.90;;;5.19;100.00;101347.41;5011060;28;20493;-87
2022/11/03 07:12:16;;;;;;;19.95;6.43;;;5.70;99.90;;;4.81;100.00;101334.88;5017457;28;20067;-87
2022/11/03 07:14:55;;;;;;;23.70;6.53;;;;;;;4.79;100.00;101336.63;5018914;28;20041;-87
2022/11/03 07:17:34;;;;;;;32.67;6.43;;;6.00;99.90;;;4.81;100.00;101327.91;5026716;28;20446;-87
2022/11/03 07:20:14;;;;;;;28.48;5.63;;;;;;;5.01;100.00;101330.25;5009311;28;20025;-87
2022/11/03 07:22:45;;;;;;;20.48;5.90;;;;;;;6.94;100.00;101343.44;5013612;28;20037;-87
2022/11/03 07:25:25;;;;;;;16.33;4.97;;;7.10;99.90;;;8.10;100.00;101341.50;5053615;23;20064;-87
2022/11/03 07:28:12;;;;;;;20.27;4.88;;;7.60;99.90;;;8.72;92.86;101333.69;5032737;28;20037;-87
2022/11/03 07:30:44;;;;;;;14.82;4.43;;;8.40;99.90;;;9.31;87.23;101342.41;5013197;28;20017;-87
2022/11/03 07:33:45;;;;;;;;;;;;;;;;;;;;;
2022/11/03 07:36:30;;;;;;;15.57;4.30;;;8.70;99.90;;;7.44;90.72;101323.06;5037139;28;20548;-87
2022/11/03 07:39:27;;;;;;;18.23;4.57;;;;;;;7.08;93.31;101320.41;5019970;28;20069;-87
2022/11/03 07:41:52;;;;;;;;;;;8.40;99.90;;;6.72;96.06;101312.47;5013394;28;20040;-87
2022/11/03 07:44:45;;;;;;;16.83;4.50;;;8.10;99.90;;;6.58;98.10;101311.88;5065974;22;19920;-87
2022/11/03 07:47:15;;;;;;;15.55;5.60;;;;;;;6.58;100.00;101320.59;5037696;28;20052;-84
2022/11/03 07:49:47;;;;;;;16.00;4.63;;;8.00;99.90;;;6.61;100.00;101316.19;5053469;28;20037;-84
2022/11/03 07:52:17;;;;;;;14.32;4.50;;;8.00;99.90;;;6.69;100.00;101317.75;5040123;28;20025;-85
2022/11/03 07:54:43;;;;;;;20.60;4.90;;;8.00;99.90;;;6.67;100.00;101306.44;5044198;28;20054;-85
2022/11/03 07:57:32;;;;;;;20.27;4.50;;;8.00;99.90;;;6.84;100.00;101307.84;5051879;28;20028;-84
2022/11/03 08:00:20;;;;;;;19.63;4.50;;;8.20;99.90;;;7.37;100.00;101297.91;5065675;28;20032;-85
2022/11/03 08:02:59;;;;;;;16.27;4.70;;;8.50;99.90;;;7.63;99.89;101304.28;5069474;28;20024;-84
2022/11/03 08:05:34;;;;;;;14.30;4.50;;;8.70;99.90;;;7.54;99.43;101298.38;5051219;28;20051;-85
2022/11/03 08:08:03;;;;;;;15.93;5.45;;;8.70;99.90;;;7.58;99.77;101301.75;5053231;28;20398;-84
2022/11/03 08:10:29;;;;;;;21.48;6.93;;;8.80;99.90;;;7.58;100.00;101296.50;5044861;28;20020;-85
2022/11/03 08:13:02;;;;;;;21.85;6.65;;;8.80;99.90;;;7.56;99.76;101287.84;5055314;28;20495;-84
2022/11/03 08:15:28;;;;;;;15.82;5.35;;;8.80;99.90;;;7.57;99.92;101276.47;5049977;28;20025;-84
2022/11/03 08:17:53;;;;;;;18.25;5.28;;;8.80;99.90;;;7.59;99.79;101277.28;5049900;28;20028;-84
2022/11/03 08:20:26;;;;;;;19.02;4.70;;;8.90;99.90;;;7.65;99.91;101276.28;5048724;28;20119;-85
2022/11/03 08:22:54;;;;;;;11.65;4.82;;;8.90;99.90;;;7.68;99.25;101273.56;5055340;28;20117;-84
2022/11/03 08:25:20;;;;;;;13.27;4.15;;;9.00;99.90;;;7.72;99.82;101267.34;5079483;28;20036;-85
2022/11/03 08:27:46;;;;;;;22.85;5.50;;;9.00;99.90;;;7.68;99.54;101265.69;5050107;28;20082;-84
2022/11/03 08:30:12;;;;;;;17.60;4.28;;;9.00;99.90;;;7.79;99.54;101264.50;5049282;28;20136;-85
2022/11/03 08:32:50;;;;;;;14.55;4.07;;;9.10;99.90;;;7.90;99.58;101255.50;5056144;28;20057;-85
2022/11/03 08:35:16;;;;;;;15.88;5.00;;;9.20;99.90;;;8.02;99.28;101257.78;5050319;28;20028;-84
2022/11/03 08:37:51;;;;;;;18.40;4.93;;;;;;;8.16;99.04;101255.66;5047542;28;20082;-85
2022/11/03 08:40:17;;;;;;;18.15;4.25;;;;;;;8.24;98.56;101262.44;5086738;28;20053;-85
2022/11/03 08:42:43;;;;;;;18.33;3.40;;;9.40;99.90;;;8.31;98.14;101256.13;5064596;28;20553;-84
2022/11/03 08:45:18;;;;;;;27.63;15.45;;;9.50;99.90;;;8.35;97.64;101263.84;5059668;28;20115;-85
2022/11/03 08:47:44;;;;;;;19.25;5.18;;;9.60;99.90;;;8.42;97.15;101248.81;5064141;28;20063;-86
2022/11/03 08:50:58;;;;;;;16.25;4.28;;;9.60;99.90;;;8.41;96.99;101245.34;5055219;28;20025;-85
2022/11/03 08:53:03;;;;;;;13.13;4.00;;;9.70;99.90;;;8.48;96.70;101250.41;5053247;28;20040;-86
2022/11/03 08:55:31;;;;;;;17.92;3.70;;;;;;;8.49;97.14;101249.50;5045052;28;20626;-85
2022/11/03 08:58:16;;;;;;;;;;;;;;;;;;;;;
2022/11/03 09:00:53;;;;;;;18.90;3.95;;;;;;;8.72;97.53;101247.03;5087355;28;20038;-85
2022/11/03 09:03:31;;;;;;;18.75;4.60;;;;;;;9.00;96.63;101236.53;5080351;28;20467;-86
2022/11/03 09:06:04;;;;;;;12.85;3.90;;;10.20;99.90;;;9.30;95.63;101239.06;5053306;23;20045;-86
2022/11/03 09:08:33;;;;;;;15.48;4.05;;;;;;;9.60;94.70;101236.34;5032975;28;20029;-85
2022/11/03 09:11:25;;;;;;;13.82;3.28;;;10.50;99.90;;;9.68;93.87;101226.41;5040866;28;20056;-86
2022/11/03 09:13:53;;;;;;;10.18;2.80;;;10.70;99.90;;;9.74;92.05;101227.94;5025735;28;20107;-86
2022/11/03 09:16:44;;;;;;;16.67;3.42;;;10.90;99.90;;;9.90;93.05;101225.66;5032190;28;20037;-87
2022/11/03 09:19:13;;;;;;;16.13;3.50;;;;;;;10.01;93.00;101216.44;5026623;28;20022;-85
2022/11/03 09:21:51;;;;;;;13.80;3.15;;;11.30;99.90;;;10.19;92.29;101200.91;5048396;28;20039;-84
2022/11/03 09:24:35;;;;;;;10.93;2.97;;;11.60;99.90;;;10.36;93.06;101213.47;5033039;28;20048;-86
2022/11/03 09:27:13;;;;;;;17.98;3.25;;;;;;;10.53;91.54;101218.09;5024268;28;20047;-86
2022/11/03 09:29:54;;;;;;;15.95;3.28;;;;;;;10.68;91.04;101207.81;5047948;28;20103;-87
2022/11/03 09:32:31;;;;;;;14.63;2.65;;;;;;;10.93;90.53;101205.97;5038511;28;20071;-86
2022/11/03 09:35:13;;;;;;;12.60;2.50;;;12.30;99.90;;;11.12;90.02;101204.28;5035929;28;20029;-86
2022/11/03 09:37:56;;;;;;;12.40;2.67;;;12.50;99.90;;;11.24;88.54;101198.53;5062467;28;20024;-87
2022/11/03 09:40:34;;;;;;;16.90;2.55;;;;;;;11.25;87.94;101200.25;5032120;28;20115;-87
2022/11/03 09:43:24;;;;;;;14.68;3.10;;;12.50;99.90;;;11.27;86.96;101194.88;5043621;28;21220;-87
2022/11/03 09:45:53;;;;;;;11.88;2.50;;;;;;;11.20;86.17;101188.16;5023529;23;20502;-87
2022/11/03 09:51:55;;;;;;;15.18;3.25;;;;;;;11.29;85.93;101183.38;4968085;28;21381;-87
2022/11/03 09:54:25;;;;;;;14.07;3.17;;;12.40;99.90;;;11.30;85.70;101184.22;5043436;28;21197;-87
2022/11/03 09:58:42;;;;;;;18.67;2.70;;;12.50;99.90;;;11.40;84.87;101179.41;4996520;28;20069;-90
2022/11/03 10:01:02;;;;;;;9.45;2.03;;;;;;;11.52;85.00;101178.91;4982190;28;20057;-86
2022/11/03 10:03:31;;;;;;;11.90;2.08;;;12.60;99.90;;;11.63;84.60;101173.16;5011964;28;20029;-87
2022/11/03 10:06:05;;;;;;;15.95;2.88;;;12.70;99.90;;;11.74;83.67;101173.53;5028971;23;20041;-86
2022/11/03 10:08:34;;;;;;;9.90;2.47;;;12.80;99.90;;;11.82;83.21;101167.94;5032539;28;20060;-87
2022/11/03 10:11:11;;;;;;;13.30;2.15;;;12.90;99.90;;;11.94;82.37;101156.81;5017425;28;20108;-87
2022/11/03 10:14:05;;;;;;;13.68;2.47;;;13.00;99.90;;;12.02;81.96;101157.34;5022017;28;20025;-86
2022/11/03 10:16:34;;;;;;;9.55;2.60;;;13.00;99.90;;;11.99;81.39;101151.38;5019230;28;20037;-87
2022/11/03 10:19:01;;;;;;;15.15;2.17;;;;;;;12.09;82.16;101158.78;5022941;28;20421;-86
2022/11/03 10:21:50;;;;;;;;;;;;;;;;;;;;;
2022/11/03 10:24:16;;;;;;;14.85;2.53;;;13.10;99.90;;;12.11;81.33;101153.41;5043200;28;20033;-87
2022/11/03 10:27:24;;;;;;;14.88;2.47;;;13.20;99.90;;;12.10;80.86;101149.09;5045090;28;20409;-87
2022/11/03 10:30:13;;;;;;;10.32;2.22;;;13.20;99.90;;;12.10;80.35;101149.09;5014972;28;20029;-87
2022/11/03 10:32:53;;;;;;;9.77;1.80;;;13.20;99.90;;;12.13;80.70;101142.81;5014682;28;20029;-86
2022/11/03 10:36:03;;;;;;;11.50;2.50;;;13.20;99.90;;;12.15;79.36;101140.94;5024232;28;20022;-86
2022/11/03 10:38:42;;;;;;;10.27;2.05;;;13.30;99.90;;;12.20;80.08;101133.66;4995146;28;20033;-87
2022/11/03 10:41:34;;;;;;;12.95;2.63;;;13.30;99.90;;;12.21;79.70;101132.75;5017400;28;20104;-87
2022/11/03 10:44:17;;;;;;;16.65;10.27;;;13.30;99.90;;;12.21;80.22;101130.09;5033132;28;20029;-87
2022/11/03 10:47:47;;;;;;;11.23;6.03;;;13.30;99.90;;;12.14;79.14;101136.56;5036462;28;20060;-86
2022/11/03 10:50:24;;;;;;;15.18;4.82;;;;;;;12.20;79.11;101125.75;5042153;28;20043;-87
2022/11/03 10:52:59;;;;;;;13.32;4.57;;;;;;;12.18;78.93;101127.59;5028342;28;20497;-87
2022/11/03 10:55:36;;;;;;;;;;;;;;;;;;;;;
2022/11/03 10:58:05;;;;;;;14.55;3.42;;;;;;;12.09;78.18;101119.19;5050918;28;20031;-87
2022/11/03 11:00:34;;;;;;;12.13;3.15;;;;;;;12.09;78.04;101118.31;5039086;28;20497;-87
2022/11/03 11:03:36;;;;;;;;;;;;;;;;;;;;;
2022/11/03 11:06:24;;;;;;;10.23;2.53;;;;;;;12.09;78.28;101107.75;5042541;28;20040;-87
2022/11/03 11:09:32;;;;;;;12.57;2.97;;;13.20;99.90;;;11.98;77.96;101102.97;5040696;28;20107;-86
2022/11/03 11:12:44;;;;;;;;;;;13.20;99.90;;;11.91;77.21;101114.75;5062179;22;20044;-85
2022/11/03 11:15:43;;;;;;;10.02;2.25;;;13.10;99.90;;;12.03;77.93;101106.28;5050973;28;19916;-85
2022/11/03 11:18:09;;;;;;;15.63;2.90;;;13.20;99.90;;;12.13;78.49;101106.69;5071494;28;20024;-85
2022/11/03 11:20:43;;;;;;;9.63;2.75;;;13.20;99.90;;;12.22;77.68;101108.03;5053017;28;20052;-84
2022/11/03 11:23:29;;;;;;;13.82;2.42;;;13.30;99.90;;;12.39;77.40;101102.81;5031924;28;20033;-83
2022/11/03 11:26:07;;;;;;;;;;;13.40;99.90;;;12.49;77.11;101095.31;5048436;28;20029;-83
2022/11/03 11:29:09;;;;;;;11.25;2.13;;;13.50;99.90;;;12.55;77.13;101086.22;5039134;28;19913;-83
2022/11/03 11:31:42;;;;;;;13.27;2.85;;;13.60;99.90;;;12.57;76.66;101084.34;5014576;28;20434;-82
2022/11/03 11:34:13;;;;;;;9.45;2.15;;;13.60;99.90;;;12.61;75.59;101094.72;5033341;28;20029;-84
2022/11/03 11:36:59;;;;;;;15.15;2.05;;;13.70;99.90;;;12.63;76.07;101076.97;5032680;28;20064;-83
2022/11/03 11:39:30;;;;;;;9.20;2.37;;;13.70;99.90;;;12.68;75.64;101068.84;5025286;28;20048;-82
2022/11/03 11:42:12;;;;;;;12.75;2.35;;;13.70;99.90;;;12.70;75.54;101065.19;5049907;28;20429;-83
2022/11/03 11:44:52;;;;;;;10.57;2.08;;;13.80;99.90;;;12.73;76.82;101067.66;5021027;28;20039;-83
2022/11/03 11:47:47;;;;;;;10.35;2.30;;;13.80;99.90;;;12.78;76.42;101067.44;5032518;28;20025;-84
2022/11/03 11:50:24;;;;;;;12.95;2.35;;;13.80;99.90;;;12.82;76.28;101062.88;5033954;28;20045;-83
2022/11/03 11:53:06;;;;;;;14.73;1.98;;;13.80;99.90;;;12.81;75.53;101043.53;5045932;28;20044;-83
2022/11/03 11:55:55;;;;;;;1999.90;999.90;;;13.90;99.90;;;12.80;74.67;101046.22;5027335;28;20030;-83
2022/11/03 11:58:40;;;;;;;1999.90;999.90;;;13.90;99.90;;;12.88;75.20;101047.53;5031752;28;20048;-83
2022/11/03 12:01:35;;;;;;;1999.90;999.90;;;13.90;99.90;;;12.90;75.29;101042.19;5020503;28;20021;-82